Time;durP1;ratioP1;P1;durP2;ratioP2;P2;SDS_P1;SDS_P2;PMS_P1;PMS_P2;Temp;Humidity;BMP_temperature;BMP_pressure;BME280_temperature;BME280_humidity;BME280_pressure;Samples;Min_cycle;Max_cycle;Signal;HPM_P1;HPM_P2
2023/10/03 00:02:05;;;;;;;21.13;10.20;;;;;;;12.07;100.00;98438.44;5133893;27;20023;-75
2023/10/03 00:04:31;;;;;;;19.42;10.15;;;;;;;12.12;100.00;98441.72;5141288;27;20490;-76
2023/10/03 00:06:57;;;;;;;19.17;9.95;;;;;;;12.02;100.00;98443.19;5133681;27;20037;-76
2023/10/03 00:09:23;;;;;;;18.90;11.27;;;;;;;11.95;100.00;98444.44;5148324;27;20060;-75
2023/10/03 00:11:49;;;;;;;19.80;10.60;;;;;;;11.84;100.00;98436.13;5153088;27;20091;-75
2023/10/03 00:14:15;;;;;;;22.60;10.65;;;;;;;11.90;100.00;98442.00;5151894;27;20026;-75
2023/10/03 00:16:41;;;;;;;16.92;9.38;;;;;;;11.87;100.00;98439.47;5152973;27;20030;-76
2023/10/03 00:19:07;;;;;;;23.15;8.65;;;;;;;11.89;100.00;98439.41;5154097;27;20026;-76
2023/10/03 00:21:36;;;;;;;16.90;9.60;;;;;;;11.92;100.00;98444.63;5152901;27;20023;-75
2023/10/03 00:24:01;;;;;;;15.82;8.77;;;;;;;11.80;100.00;98438.09;5152824;27;20101;-74
2023/10/03 00:26:28;;;;;;;23.23;8.88;;;;;;;11.77;100.00;98445.44;5152991;27;20118;-77
2023/10/03 00:28:56;;;;;;;19.27;8.20;;;;;;;11.81;100.00;98455.88;5152621;27;20042;-76
2023/10/03 00:31:22;;;;;;;17.83;9.82;;;;;;;11.76;100.00;98444.56;5154100;27;20166;-76
2023/10/03 00:33:48;;;;;;;21.08;9.68;;;;;;;11.72;100.00;98445.66;5153865;27;20018;-76
2023/10/03 00:36:22;;;;;;;18.23;9.57;;;;;;;11.66;100.00;98443.25;5152717;27;20453;-75
2023/10/03 00:38:47;;;;;;;16.73;9.32;;;;;;;11.61;100.00;98447.13;5152975;27;20072;-76
2023/10/03 00:41:13;;;;;;;22.38;9.80;;;;;;;11.53;100.00;98441.31;5141614;27;20128;-76
2023/10/03 00:43:52;;;;;;;18.20;10.10;;;;;;;11.50;100.00;98436.09;5133103;27;20498;-76
2023/10/03 00:46:18;;;;;;;18.33;9.75;;;;;;;11.47;100.00;98445.19;5151687;27;20018;-75
2023/10/03 00:48:47;;;;;;;19.65;9.40;;;;;;;11.42;100.00;98444.53;5153970;27;20072;-75
2023/10/03 00:51:20;;;;;;;19.35;10.00;;;;;;;11.38;100.00;98449.16;5152341;27;20023;-75
2023/10/03 00:53:47;;;;;;;23.40;11.02;;;;;;;11.38;100.00;98451.84;5152528;27;20101;-75
2023/10/03 00:56:14;;;;;;;22.95;10.40;;;;;;;11.37;100.00;98452.81;5152152;27;20415;-75
2023/10/03 00:58:41;;;;;;;25.00;10.73;;;;;;;11.30;100.00;98451.38;5152282;27;20056;-75
2023/10/03 01:01:09;;;;;;;21.08;11.15;;;;;;;11.23;100.00;98449.06;5151879;27;20038;-75
2023/10/03 01:03:39;;;;;;;23.85;10.82;;;;;;;11.19;100.00;98456.41;5152276;27;20055;-75
2023/10/03 01:06:09;;;;;;;16.83;9.88;;;;;;;11.24;100.00;98451.69;5153282;27;20096;-75
2023/10/03 01:08:43;;;;;;;21.92;10.35;;;;;;;11.31;100.00;98461.16;5134640;27;20031;-74
2023/10/03 01:11:15;;;;;;;22.08;10.25;;;;;;;11.25;100.00;98453.44;5151753;27;20131;-74
2023/10/03 01:13:43;;;;;;;18.90;10.52;;;;;;;11.11;100.00;98455.03;5152125;27;20034;-75
2023/10/03 01:16:11;;;;;;;18.50;9.38;;;;;;;11.10;100.00;98448.84;5151738;27;20034;-75
2023/10/03 01:18:38;;;;;;;18.05;9.18;;;;;;;11.00;100.00;98455.59;5134973;27;20033;-75
2023/10/03 01:21:06;;;;;;;19.20;9.30;;;;;;;11.00;100.00;98452.91;5151350;27;20076;-75
2023/10/03 01:23:35;;;;;;;15.32;8.63;;;;;;;10.91;100.00;98445.31;5151891;27;20022;-75
2023/10/03 01:26:02;;;;;;;24.27;9.35;;;;;;;11.01;100.00;98451.09;5151674;27;20035;-75
2023/10/03 01:28:27;;;;;;;17.58;8.93;;;;;;;11.03;100.00;98450.06;5151341;27;20626;-75
2023/10/03 01:30:53;;;;;;;17.92;9.38;;;;;;;11.03;100.00;98447.41;5151711;27;20126;-75
2023/10/03 01:33:22;;;;;;;19.77;8.95;;;;;;;10.98;100.00;98446.78;5151520;27;20027;-75
2023/10/03 01:35:48;;;;;;;22.25;8.43;;;;;;;10.98;100.00;98438.75;5151721;27;20031;-74
2023/10/03 01:38:14;;;;;;;21.17;9.63;;;;;;;10.99;100.00;98442.25;5133344;27;20042;-75
2023/10/03 01:40:40;;;;;;;19.35;9.50;;;;;;;10.97;100.00;98437.00;5117916;27;20434;-76
2023/10/03 01:43:07;;;;;;;19.67;8.95;;;;;;;10.95;100.00;98444.22;5151620;27;20029;-75
2023/10/03 01:45:32;;;;;;;20.45;8.77;;;;;;;10.90;100.00;98430.19;5151963;27;20045;-77
2023/10/03 01:48:04;;;;;;;17.50;8.32;;;;;;;10.87;100.00;98430.34;5152683;27;20482;-77
2023/10/03 01:50:33;;;;;;;19.67;9.45;;;;;;;10.79;100.00;98422.72;5148654;27;20061;-77
2023/10/03 01:52:59;;;;;;;19.02;9.00;;;;;;;10.82;100.00;98427.91;5145900;27;20034;-77
2023/10/03 01:55:25;;;;;;;17.90;9.45;;;;;;;10.79;100.00;98424.50;5151099;27;20308;-76
2023/10/03 01:57:50;;;;;;;17.67;8.93;;;;;;;10.71;100.00;98429.34;5151583;27;20031;-77
2023/10/03 02:00:26;;;;;;;18.60;9.40;;;;;;;10.60;100.00;98415.63;5150877;27;20027;-76
2023/10/03 02:03:05;;;;;;;15.10;9.00;;;;;;;10.57;100.00;98427.34;5135196;27;20030;-77
2023/10/03 02:05:36;;;;;;;17.77;9.02;;;;;;;10.59;100.00;98424.59;5150888;27;20092;-77
2023/10/03 02:08:18;;;;;;;21.27;10.48;;;;;;;10.62;100.00;98430.66;5136083;27;20023;-77
2023/10/03 02:10:50;;;;;;;22.80;10.63;;;;;;;10.59;100.00;98427.28;5130551;27;20019;-77
2023/10/03 02:13:17;;;;;;;;;;;;;;;10.58;100.00;98425.56;5147775;27;20447;-77
2023/10/03 02:15:44;;;;;;;21.90;10.43;;;;;;;10.53;100.00;98423.09;5136071;27;20479;-76
2023/10/03 02:18:10;;;;;;;20.30;10.02;;;;;;;10.53;100.00;98420.41;5148952;27;20058;-76
2023/10/03 02:20:52;;;;;;;19.98;10.52;;;;;;;10.41;100.00;98420.13;5139546;27;20383;-75
2023/10/03 02:23:23;;;;;;;19.15;8.85;;;;;;;10.39;100.00;98416.66;5150390;27;20103;-75
2023/10/03 02:25:50;;;;;;;19.90;8.90;;;;;;;10.31;100.00;98409.84;5152491;27;20132;-75
2023/10/03 02:28:17;;;;;;;18.30;8.55;;;;;;;10.34;100.00;98416.88;5139539;27;20443;-77
2023/10/03 02:30:47;;;;;;;15.85;8.55;;;;;;;10.29;100.00;98417.09;5150813;27;20396;-77
2023/10/03 02:33:14;;;;;;;17.70;8.88;;;;;;;10.32;100.00;98422.31;5133176;27;20029;-76
2023/10/03 02:35:42;;;;;;;18.92;9.55;;;;;;;10.43;100.00;98418.25;5150879;27;20073;-74
2023/10/03 02:38:10;;;;;;;19.50;9.35;;;;;;;10.49;100.00;98429.50;5155192;27;20033;-75
2023/10/03 02:40:36;;;;;;;20.45;9.75;;;;;;;10.47;100.00;98422.50;5158773;27;20035;-75
2023/10/03 02:43:02;;;;;;;28.10;9.98;;;;;;;10.50;100.00;98425.91;5158525;27;20034;-74
2023/10/03 02:45:28;;;;;;;32.97;10.25;;;;;;;10.51;100.00;98432.13;5140214;27;20026;-74
2023/10/03 02:47:55;;;;;;;18.90;9.63;;;;;;;10.52;100.00;98436.56;5157667;27;20030;-75
2023/10/03 02:50:26;;;;;;;24.52;10.38;;;;;;;10.54;100.00;98431.97;5155160;27;20490;-75
2023/10/03 02:52:52;;;;;;;20.80;10.63;;;;;;;10.58;100.00;98438.94;5153383;27;20022;-74
2023/10/03 02:55:18;;;;;;;23.77;11.55;;;;;;;10.54;100.00;98440.00;5157018;27;20466;-75
2023/10/03 02:57:44;;;;;;;23.00;11.73;;;;;;;10.49;100.00;98440.22;5157277;27;20022;-75
2023/10/03 03:00:15;;;;;;;32.95;11.27;;;;;;;10.45;100.00;98433.28;5140042;27;20417;-75
2023/10/03 03:02:48;;;;;;;25.48;10.52;;;;;;;10.45;100.00;98437.78;5157142;27;20474;-75
2023/10/03 03:05:17;;;;;;;39.03;18.02;;;;;;;10.40;100.00;98439.81;5147664;27;20030;-76
2023/10/03 03:07:48;;;;;;;19.05;9.95;;;;;;;10.41;100.00;98436.16;5157111;27;20026;-75
2023/10/03 03:10:21;;;;;;;24.48;10.13;;;;;;;10.37;100.00;98437.28;5139311;27;20075;-75
2023/10/03 03:12:47;;;;;;;28.00;10.98;;;;;;;10.38;100.00;98436.31;5136653;27;20023;-75
2023/10/03 03:15:21;;;;;;;20.63;10.10;;;;;;;10.30;100.00;98431.34;5119216;27;20554;-76
2023/10/03 03:17:50;;;;;;;18.45;9.70;;;;;;;10.15;100.00;98427.53;5133970;27;20030;-76
2023/10/03 03:20:27;;;;;;;24.88;10.43;;;;;;;10.15;100.00;98429.38;5158167;27;20185;-76
2023/10/03 03:22:53;;;;;;;20.95;9.88;;;;;;;10.12;100.00;98432.16;5157422;27;20026;-76
2023/10/03 03:25:25;;;;;;;22.15;10.48;;;;;;;10.06;100.00;98435.13;5156864;27;20029;-76
2023/10/03 03:27:54;;;;;;;33.37;10.90;;;;;;;10.03;100.00;98435.25;5157259;27;20059;-76
2023/10/03 03:30:38;;;;;;;30.77;11.20;;;;;;;9.97;100.00;98436.38;5156848;27;20719;-76
2023/10/03 03:33:06;;;;;;;24.20;10.95;;;;;;;10.01;100.00;98435.31;5152604;27;20023;-75
2023/10/03 03:35:38;;;;;;;23.67;11.18;;;;;;;9.97;100.00;98432.81;5137216;27;20066;-76
2023/10/03 03:38:05;;;;;;;25.30;11.47;;;;;;;9.92;100.00;98438.41;5135080;27;20030;-74
2023/10/03 03:40:34;;;;;;;22.77;11.00;;;;;;;9.78;100.00;98430.97;5130320;27;20027;-77
2023/10/03 03:43:02;;;;;;;32.28;10.65;;;;;;;9.81;100.00;98435.34;5137651;27;20062;-75
2023/10/03 03:45:27;;;;;;;24.77;12.20;;;;;;;9.77;100.00;98428.41;5119133;27;20052;-75
2023/10/03 03:47:56;;;;;;;24.58;11.63;;;;;;;9.67;100.00;98435.94;5137461;27;20058;-75
2023/10/03 03:50:22;;;;;;;30.00;12.63;;;;;;;9.66;100.00;98442.22;5133653;27;20030;-76
2023/10/03 03:52:53;;;;;;;26.73;11.75;;;;;;;9.66;100.00;98452.91;5153482;27;20027;-76
2023/10/03 03:55:18;;;;;;;26.42;12.18;;;;;;;9.64;100.00;98449.44;5153340;27;20492;-76
2023/10/03 03:57:50;;;;;;;25.92;13.07;;;;;;;9.61;100.00;98440.69;5154300;27;20127;-76
2023/10/03 04:00:22;;;;;;;25.58;11.95;;;;;;;9.58;100.00;98443.50;5153492;27;20042;-76
2023/10/03 04:02:48;;;;;;;30.52;13.25;;;;;;;9.63;100.00;98442.34;5153358;27;20379;-76
2023/10/03 04:05:17;;;;;;;30.40;12.77;;;;;;;9.64;100.00;98448.56;5154698;27;20114;-76
2023/10/03 04:07:43;;;;;;;32.67;12.43;;;;;;;9.66;100.00;98446.69;5152992;27;20465;-76
2023/10/03 04:10:15;;;;;;;25.30;9.85;;;;;;;9.65;100.00;98447.66;5147667;27;20034;-74
2023/10/03 04:12:44;;;;;;;30.23;10.20;;;;;;;9.55;100.00;98448.97;5115821;27;20175;-77
2023/10/03 04:15:12;;;;;;;19.58;10.15;;;;;;;9.60;100.00;98441.63;5128227;27;20043;-76
2023/10/03 04:17:40;;;;;;;26.90;10.05;;;;;;;9.54;100.00;98441.88;5150008;27;20038;-78
2023/10/03 04:22:51;;;;;;;30.00;12.55;;;;;;;9.66;100.00;98458.25;5147853;27;20030;-76
2023/10/03 04:25:21;;;;;;;29.17;14.20;;;;;;;9.72;100.00;98460.66;5131941;27;20079;-75
2023/10/03 04:27:51;;;;;;;27.75;13.32;;;;;;;9.65;100.00;98442.31;5149246;27;20098;-75
2023/10/03 04:30:21;;;;;;;27.38;11.80;;;;;;;9.62;100.00;98450.44;5139342;27;20019;-75
2023/10/03 04:32:50;;;;;;;29.98;10.98;;;;;;;9.62;100.00;98450.44;5153068;27;20454;-80
2023/10/03 04:35:18;;;;;;;23.40;10.63;;;;;;;9.57;100.00;98447.09;5152871;27;20026;-78
2023/10/03 04:37:51;;;;;;;36.20;12.40;;;;;;;9.58;100.00;98462.19;5135406;27;20556;-78
2023/10/03 04:40:22;;;;;;;29.90;13.38;;;;;;;9.62;100.00;98450.44;5124689;27;20031;-78
2023/10/03 04:42:50;;;;;;;26.17;12.10;;;;;;;9.60;100.00;98452.31;5132177;27;20030;-78
2023/10/03 04:45:19;;;;;;;37.40;15.07;;;;;;;9.60;100.00;98446.97;5113525;27;20448;-78
2023/10/03 04:47:45;;;;;;;43.92;12.93;;;;;;;9.71;100.00;98463.41;5131819;27;20139;-78
2023/10/03 04:50:11;;;;;;;35.33;13.43;;;;;;;9.84;100.00;98461.06;5122732;27;20500;-78
2023/10/03 04:52:41;;;;;;;30.65;13.52;;;;;;;9.92;100.00;98466.91;5141647;27;20034;-78
2023/10/03 04:55:07;;;;;;;27.02;12.82;;;;;;;9.98;100.00;98459.50;5131280;27;20023;-79
2023/10/03 04:57:33;;;;;;;27.45;11.88;;;;;;;10.04;100.00;98453.88;5128860;27;20018;-79
2023/10/03 04:59:59;;;;;;;25.15;12.27;;;;;;;10.15;100.00;98459.63;5125624;27;20469;-78
2023/10/03 05:02:26;;;;;;;21.42;11.60;;;;;;;10.16;100.00;98458.69;5131834;27;20035;-79
2023/10/03 05:04:51;;;;;;;24.80;11.70;;;;;;;10.45;100.00;98456.50;5130815;27;20087;-79
2023/10/03 05:07:17;;;;;;;29.38;11.13;;;;;;;10.99;100.00;98464.53;5134573;27;20454;-79
2023/10/03 05:09:43;;;;;;;20.00;11.07;;;;;;;11.65;100.00;98456.75;5151732;27;20079;-79
2023/10/03 05:12:09;;;;;;;32.92;10.50;;;;;;;12.30;100.00;98446.13;5150469;27;20068;-79
2023/10/03 05:14:40;;;;;;;20.65;10.45;;;;;;;12.92;100.00;98456.03;5143239;27;20025;-79
2023/10/03 05:17:06;;;;;;;22.88;10.77;;;;;;;13.49;100.00;98445.56;5116542;27;20037;-78
2023/10/03 05:19:31;;;;;;;29.80;10.70;;;;;;;13.97;100.00;98439.06;5122329;27;20562;-78
2023/10/03 05:21:58;;;;;;;28.50;11.45;;;;;;;14.18;100.00;98429.66;5130679;27;20126;-79
2023/10/03 05:24:24;;;;;;;42.92;18.52;;;;;;;14.19;100.00;98431.41;5148396;27;20100;-77
2023/10/03 05:26:51;;;;;;;53.60;26.63;;;;;;;14.20;100.00;98432.25;5147030;27;20081;-78
2023/10/03 05:29:17;;;;;;;70.30;35.25;;;;;;;14.00;100.00;98437.03;5151359;27;20501;-79
2023/10/03 05:31:43;;;;;;;69.15;34.83;;;;;;;14.20;100.00;98432.25;5134295;27;20105;-78
2023/10/03 05:34:10;;;;;;;62.08;30.08;;;;;;;14.34;100.00;98430.47;5133133;27;20109;-78
2023/10/03 05:36:35;;;;;;;61.55;29.17;;;;;;;14.80;100.00;98430.22;5125741;27;20022;-79
2023/10/03 05:39:03;;;;;;;54.70;27.90;;;;;;;15.01;100.00;98426.97;5151573;27;20113;-79
2023/10/03 05:41:29;;;;;;;56.58;28.60;;;;;;;15.19;100.00;98427.63;5132727;27;20019;-80
2023/10/03 05:43:54;;;;;;;58.40;25.02;;;;;;;15.34;100.00;98421.22;5149981;27;20031;-79
2023/10/03 05:46:20;;;;;;;51.15;24.90;;;;;;;15.67;100.00;98410.84;5151052;27;20023;-79
2023/10/03 05:48:46;;;;;;;51.92;23.77;;;;;;;16.12;100.00;98416.72;5136927;27;20183;-79
2023/10/03 05:51:12;;;;;;;47.05;22.92;;;;;;;16.40;100.00;98416.47;5113258;27;20027;-78
2023/10/03 05:53:40;;;;;;;48.20;23.20;;;;;;;16.68;100.00;98405.44;5130201;27;20058;-78
2023/10/03 05:56:06;;;;;;;47.78;20.88;;;;;;;17.42;100.00;98415.22;5147886;27;20632;-79
2023/10/03 05:58:32;;;;;;;50.80;23.45;;;;;;;18.02;100.00;98407.00;5124008;27;20149;-78
2023/10/03 06:00:59;;;;;;;44.42;22.23;;;;;;;18.04;100.00;98398.72;5133849;27;20388;-79
2023/10/03 06:03:25;;;;;;;39.80;21.42;;;;;;;18.39;100.00;98404.94;5115399;27;20042;-79
2023/10/03 06:05:51;;;;;;;50.88;22.23;;;;;;;18.54;100.00;98400.16;5131751;27;20030;-78
2023/10/03 06:08:17;;;;;;;49.03;21.65;;;;;;;19.03;99.88;98402.44;5147489;27;20015;-78
2023/10/03 06:10:43;;;;;;;40.13;20.90;;;;;;;19.63;94.27;98394.63;5150863;27;20090;-78
2023/10/03 06:13:10;;;;;;;29.75;15.07;;;;;;;20.19;89.35;98388.88;5132931;27;20065;-78
2023/10/03 06:15:37;;;;;;;24.38;12.13;;;;;;;20.42;87.04;98393.19;5135154;27;20034;-78
2023/10/03 06:18:04;;;;;;;36.83;12.35;;;;;;;20.87;83.83;98386.34;5152282;27;20113;-78
2023/10/03 06:20:30;;;;;;;25.02;11.90;;;;;;;21.26;81.11;98379.16;5114884;27;20051;-78
2023/10/03 06:23:08;;;;;;;30.58;13.23;;;;;;;21.47;79.48;98389.94;5145087;27;20037;-77
2023/10/03 06:25:35;;;;;;;27.52;13.98;;;;;;;21.79;77.96;98387.78;5150771;27;20031;-78
2023/10/03 06:28:04;;;;;;;35.15;12.48;;;;;;;21.99;77.24;98389.53;5151716;27;20080;-78
2023/10/03 06:30:30;;;;;;;33.33;13.32;;;;;;;22.38;74.77;98400.34;5133170;27;20041;-78
2023/10/03 06:32:55;;;;;;;24.63;12.38;;;;;;;22.31;76.97;98401.94;5137552;27;20034;-78
2023/10/03 06:35:21;;;;;;;21.52;11.68;;;;;;;21.82;77.74;98386.63;5129641;27;20023;-78
2023/10/03 06:37:48;;;;;;;21.85;12.93;;;;;;;22.26;78.34;98396.06;5129895;27;20076;-77
2023/10/03 06:40:16;;;;;;;39.20;13.25;;;;;;;22.49;77.11;98403.75;5132205;27;20499;-78
2023/10/03 06:42:41;;;;;;;24.90;11.57;;;;;;;23.01;74.11;98398.69;5150784;27;20027;-78
2023/10/03 06:45:13;;;;;;;27.35;12.50;;;;;;;22.90;72.79;98397.03;5135803;27;20031;-78
2023/10/03 06:47:39;;;;;;;18.77;11.70;;;;;;;22.66;75.13;98399.44;5113517;27;20073;-78
2023/10/03 06:50:05;;;;;;;17.85;11.77;;;;;;;22.90;73.34;98401.63;5146668;27;20066;-78
2023/10/03 06:52:32;;;;;;;22.02;12.57;;;;;;;22.62;76.05;98406.16;5150105;27;20037;-77
2023/10/03 06:54:58;;;;;;;23.70;12.40;;;;;;;22.71;76.62;98409.88;5151234;27;20111;-78
2023/10/03 06:57:24;;;;;;;28.02;13.80;;;;;;;22.80;77.67;98403.53;5133305;27;20423;-78
2023/10/03 06:59:50;;;;;;;27.80;11.60;;;;;;;22.97;76.41;98409.06;5133268;27;20029;-79
2023/10/03 07:02:15;;;;;;;25.58;11.55;;;;;;;23.32;74.18;98412.88;5115047;27;20031;-79
2023/10/03 07:04:41;;;;;;;26.17;10.02;;;;;;;23.68;71.58;98409.22;5147079;27;20451;-79
2023/10/03 07:07:07;;;;;;;25.52;11.40;;;;;;;23.70;71.15;98418.09;5150433;27;20033;-79
2023/10/03 07:09:33;;;;;;;13.00;8.60;;;;;;;23.12;76.33;98420.31;5136836;27;20027;-78
2023/10/03 07:12:00;;;;;;;21.90;9.32;;;;;;;23.34;75.44;98425.38;5122542;28;20102;-78
2023/10/03 07:14:25;;;;;;;14.30;7.88;;;;;;;23.03;76.95;98424.81;5122244;27;20475;-78
2023/10/03 07:16:51;;;;;;;15.15;8.18;;;;;;;23.25;77.22;98428.16;5145203;27;20114;-79
2023/10/03 07:19:16;;;;;;;15.45;8.63;;;;;;;24.10;72.09;98425.81;5130726;27;20056;-78
2023/10/03 07:21:42;;;;;;;21.80;8.80;;;;;;;24.20;70.81;98427.47;5137989;27;20084;-78
2023/10/03 07:24:08;;;;;;;27.20;9.10;;;;;;;24.22;69.79;98424.56;5131349;27;20111;-79
2023/10/03 07:26:34;;;;;;;13.25;8.25;;;;;;;24.06;69.84;98414.31;5132446;27;20092;-78
2023/10/03 07:29:01;;;;;;;17.92;8.38;;;;;;;24.65;67.61;98410.84;5134823;27;20096;-75
2023/10/03 07:31:28;;;;;;;14.40;7.85;;;;;;;24.74;65.96;98409.03;5127530;27;20030;-76
2023/10/03 07:33:54;;;;;;;14.60;8.05;;;;;;;25.30;62.05;98417.53;5139041;27;20106;-77
2023/10/03 07:36:20;;;;;;;19.42;8.27;;;;;;;25.58;60.50;98420.03;5132991;27;20176;-77
2023/10/03 07:38:46;;;;;;;20.75;8.60;;;;;;;26.21;57.22;98403.88;5142054;27;20471;-78
2023/10/03 07:41:13;;;;;;;16.80;9.20;;;;;;;26.54;56.04;98401.94;5116098;27;20030;-77
2023/10/03 07:43:42;;;;;;;22.77;8.75;;;;;;;26.37;54.96;98412.94;5129226;27;20087;-77
2023/10/03 07:46:07;;;;;;;22.63;10.32;;;;;;;26.25;55.66;98408.81;5136948;27;20494;-77
2023/10/03 07:48:33;;;;;;;23.75;9.85;;;;;;;25.95;55.73;98390.28;5132999;27;20046;-77
2023/10/03 07:50:59;;;;;;;21.10;9.65;;;;;;;25.97;56.59;98398.31;5133107;27;20031;-76
2023/10/03 07:53:29;;;;;;;15.40;9.00;;;;;;;26.22;55.78;98403.69;5124202;27;20407;-76
2023/10/03 07:55:56;;;;;;;18.77;9.43;;;;;;;26.20;55.09;98394.78;5134197;27;20114;-77
2023/10/03 07:58:22;;;;;;;19.80;8.25;;;;;;;27.19;53.02;98397.13;5132559;27;20031;-77
2023/10/03 08:00:50;;;;;;;21.75;9.57;;;;;;;28.05;50.62;98386.84;5139061;27;20033;-76
2023/10/03 08:03:15;;;;;;;21.20;9.90;;;;;;;28.10;49.24;98387.13;5144863;27;20470;-77
2023/10/03 08:05:41;;;;;;;36.90;17.75;;;;;;;28.39;48.55;98384.44;5123803;27;20039;-77
2023/10/03 08:08:08;;;;;;;25.73;11.50;;;;;;;28.62;47.42;98378.03;5134037;27;20090;-77
2023/10/03 08:10:34;;;;;;;24.85;9.73;;;;;;;28.52;46.68;98370.91;5140918;27;20026;-78
2023/10/03 08:12:59;;;;;;;31.00;9.73;;;;;;;28.15;47.73;98379.16;5139114;27;20026;-78
2023/10/03 08:15:31;;;;;;;36.58;8.57;;;;;;;28.25;46.49;98368.75;5135644;27;20025;-78
2023/10/03 08:17:57;;;;;;;;;;;;;;;27.45;47.74;98382.06;5137154;27;20035;-78
2023/10/03 08:20:24;;;;;;;14.98;7.13;;;;;;;28.39;46.05;98367.94;5135661;27;19972;-78
2023/10/03 08:22:52;;;;;;;19.88;7.53;;;;;;;28.52;45.40;98367.28;5136026;27;20050;-78
2023/10/03 08:25:18;;;;;;;16.50;6.88;;;;;;;29.09;44.03;98374.94;5135996;27;20029;-78
2023/10/03 08:27:46;;;;;;;17.67;5.82;;;;;;;29.38;42.47;98361.97;5124083;27;20019;-78
2023/10/03 08:30:25;;;;;;;10.70;5.43;;;;;;;29.12;42.97;98356.13;5132530;27;20027;-77
2023/10/03 08:32:54;;;;;;;15.10;7.43;;;;;;;28.66;44.18;98360.97;5125282;27;20030;-77
2023/10/03 08:35:21;;;;;;;13.18;5.93;;;;;;;29.26;42.72;98360.78;5114029;27;20117;-78
2023/10/03 08:37:46;;;;;;;13.32;6.82;;;;;;;29.76;41.62;98353.50;5121898;27;20098;-78
2023/10/03 08:40:19;;;;;;;18.63;6.88;;;;;;;30.02;41.21;98346.34;5154215;27;20022;-77
2023/10/03 08:42:52;;;;;;;13.80;6.65;;;;;;;30.83;40.11;98341.25;5138183;27;20019;-78
2023/10/03 08:45:22;;;;;;;17.23;6.75;;;;;;;30.38;39.74;98337.13;5132318;27;20387;-76
2023/10/03 08:47:53;;;;;;;13.38;6.65;;;;;;;29.12;41.47;98345.09;5135741;27;20019;-76
2023/10/03 08:50:33;;;;;;;25.00;6.40;;;;;;;29.72;40.79;98328.19;5151025;27;20022;-77
2023/10/03 08:53:12;;;;;;;12.02;5.80;;;;;;;29.98;40.88;98331.25;5135604;27;20027;-77
2023/10/03 08:56:02;;;;;;;9.45;5.50;;;;;;;30.21;40.34;98331.03;5139228;27;20035;-77
2023/10/03 08:58:28;;;;;;;12.13;5.38;;;;;;;30.57;39.34;98326.25;5151981;27;20036;-77
2023/10/03 09:01:04;;;;;;;12.30;5.75;;;;;;;31.32;38.20;98319.84;5152487;27;20071;-77
2023/10/03 09:03:47;;;;;;;15.73;6.07;;;;;;;31.52;36.90;98308.88;5152277;27;20116;-77
2023/10/03 09:06:20;;;;;;;14.27;5.93;;;;;;;31.94;36.59;98313.19;5136098;27;20079;-77
2023/10/03 09:08:51;;;;;;;14.80;4.60;;;;;;;31.10;36.73;98310.81;5146854;27;20466;-77
2023/10/03 09:11:18;;;;;;;12.93;4.85;;;;;;;30.91;37.61;98306.03;5119195;27;20030;-76
2023/10/03 09:13:48;;;;;;;11.18;5.32;;;;;;;31.95;35.73;98303.84;5132536;27;20546;-76
2023/10/03 09:16:20;;;;;;;13.10;4.88;;;;;;;32.73;34.70;98303.00;5131509;27;20030;-75
2023/10/03 09:18:55;;;;;;;10.18;5.40;;;;;;;33.29;33.56;98303.22;5152277;27;20041;-77
2023/10/03 09:21:27;;;;;;;12.65;5.10;;;;;;;32.73;33.75;98289.97;5153036;27;20043;-77
2023/10/03 09:24:09;;;;;;;13.40;5.25;;;;;;;33.46;33.26;98286.94;5123837;27;20027;-80
2023/10/03 09:26:47;;;;;;;10.02;5.03;;;;;;;32.78;33.92;98282.94;5152054;27;20031;-76
2023/10/03 09:29:32;;;;;;;11.82;5.95;;;;;;;32.81;34.27;98288.88;5151931;27;20026;-76
2023/10/03 09:32:15;;;;;;;10.02;5.22;;;;;;;33.68;33.10;98280.84;5129717;27;20015;-77
2023/10/03 09:34:45;;;;;;;9.10;4.60;;;;;;;33.45;33.83;98285.22;5133026;27;20038;-77
2023/10/03 09:37:11;;;;;;;11.70;5.30;;;;;;;33.85;32.80;98278.38;5151707;27;20030;-77
2023/10/03 09:39:48;;;;;;;14.45;4.90;;;;;;;33.18;33.09;98273.41;5151751;27;20039;-76
2023/10/03 09:42:17;;;;;;;11.77;5.15;;;;;;;32.26;34.05;98273.63;5151699;27;20019;-76
2023/10/03 09:44:51;;;;;;;14.80;5.25;;;;;;;33.12;33.09;98274.31;5133261;27;20027;-76
2023/10/03 09:47:18;;;;;;;11.32;5.45;;;;;;;33.19;32.50;98264.84;5128626;27;20489;-76
2023/10/03 09:49:46;;;;;;;8.23;4.82;;;;;;;34.13;32.05;98258.50;5117609;27;20069;-76
2023/10/03 09:52:26;;;;;;;9.90;4.93;;;;;;;35.31;30.61;98258.09;5139561;27;20390;-76
2023/10/03 09:54:59;;;;;;;11.70;5.38;;;;;;;34.21;30.97;98252.66;5130911;27;20069;-77
2023/10/03 09:57:28;;;;;;;12.27;4.75;;;;;;;34.08;30.93;98239.72;5146423;27;20030;-77
2023/10/03 09:59:55;;;;;;;14.23;4.90;;;;;;;34.70;31.15;98240.66;5151052;27;20023;-76
2023/10/03 10:02:30;;;;;;;10.02;5.30;;;;;;;35.88;29.91;98242.69;5151466;27;20077;-77
2023/10/03 10:04:59;;;;;;;11.88;5.85;;;;;;;35.92;29.22;98226.34;5151167;27;20061;-77
2023/10/03 10:07:34;;;;;;;12.25;5.32;;;;;;;36.02;28.76;98226.59;5151254;27;20034;-78
2023/10/03 10:10:13;;;;;;;9.02;5.20;;;;;;;36.01;28.74;98229.63;5151536;27;20025;-78
2023/10/03 10:13:13;;;;;;;6.97;4.55;;;;;;;35.35;28.61;98223.13;5133588;27;20022;-78
2023/10/03 10:16:01;;;;;;;12.27;5.30;;;;;;;35.35;28.11;98211.97;5150967;27;20026;-76
2023/10/03 10:18:45;;;;;;;8.73;5.20;;;;;;;35.30;28.19;98209.06;5151951;27;20023;-76
2023/10/03 10:21:23;;;;;;;7.88;4.97;;;;;;;35.40;28.25;98205.72;5131356;27;20043;-77
2023/10/03 10:24:28;;;;;;;8.77;4.97;;;;;;;35.19;27.39;98197.91;5145215;27;20053;-77
2023/10/03 10:26:54;;;;;;;15.52;5.35;;;;;;;35.31;28.01;98187.66;5112107;27;20019;-77
2023/10/03 10:29:28;;;;;;;15.45;5.25;;;;;;;35.25;27.51;98186.69;5133046;27;20023;-78
2023/10/03 10:31:57;;;;;;;12.65;5.30;;;;;;;35.28;27.95;98189.00;5127945;27;20080;-77
2023/10/03 10:34:47;;;;;;;17.40;5.28;;;;;;;36.05;26.75;98189.06;5141888;27;20449;-77
2023/10/03 10:37:15;;;;;;;11.05;5.00;;;;;;;34.35;28.60;98181.13;5131010;27;20406;-76
2023/10/03 10:39:56;;;;;;;10.98;4.95;;;;;;;35.01;27.64;98176.47;5132288;27;20042;-76
2023/10/03 10:42:26;;;;;;;9.05;4.97;;;;;;;35.36;27.70;98171.09;5150977;27;20439;-77
2023/10/03 10:45:16;;;;;;;8.70;5.57;;;;;;;35.52;26.90;98169.56;5130467;27;20099;-77
2023/10/03 10:47:46;;;;;;;25.58;6.55;;;;;;;35.52;27.11;98153.72;5123499;27;20070;-79
2023/10/03 10:50:12;;;;;;;16.02;5.65;;;;;;;36.40;26.12;98160.09;5138700;27;20027;-78
2023/10/03 10:52:57;;;;;;;9.07;4.53;;;;;;;37.02;25.49;98157.56;5146121;27;20398;-78
2023/10/03 10:55:24;;;;;;;15.68;6.13;;;;;;;36.18;26.05;98150.66;5150842;27;20413;-77
2023/10/03 10:58:17;;;;;;;14.88;5.85;;;;;;;35.14;26.75;98145.72;5150699;27;20023;-76
2023/10/03 11:00:44;;;;;;;9.63;4.82;;;;;;;35.62;26.63;98144.81;5138438;27;20068;-76
2023/10/03 11:03:09;;;;;;;8.90;5.35;;;;;;;36.77;25.94;98149.47;5154582;27;20019;-76
2023/10/03 11:05:44;;;;;;;13.73;5.07;;;;;;;37.44;25.10;98132.94;5131598;27;20131;-77
2023/10/03 11:08:12;;;;;;;12.38;5.40;;;;;;;37.64;24.97;98127.75;5134168;27;20027;-78
2023/10/03 11:10:54;;;;;;;6.43;4.50;;;;;;;38.11;24.86;98124.59;5131022;27;20037;-75
2023/10/03 11:13:24;;;;;;;10.68;5.18;;;;;;;37.94;24.50;98114.28;5150369;27;20062;-75
2023/10/03 11:15:53;;;;;;;11.02;4.75;;;;;;;38.04;24.92;98115.53;5151860;27;20406;-75
2023/10/03 11:18:29;;;;;;;13.95;6.15;;;;;;;36.86;25.97;98116.44;5151215;27;20021;-75
2023/10/03 11:20:56;;;;;;;26.30;5.97;;;;;;;37.33;25.44;98111.53;5151516;27;20409;-76
2023/10/03 11:23:23;;;;;;;11.98;6.40;;;;;;;36.58;25.98;98108.91;5152389;27;20015;-75
2023/10/03 11:25:59;;;;;;;9.25;5.47;;;;;;;35.82;26.18;98100.72;5151311;27;20026;-75
2023/10/03 11:28:28;;;;;;;9.18;5.43;;;;;;;36.00;26.80;98108.94;5151183;27;20083;-76
2023/10/03 11:31:09;;;;;;;9.27;5.47;;;;;;;35.40;27.01;98097.16;5145269;27;20465;-75
2023/10/03 11:33:45;;;;;;;15.85;5.63;;;;;;;34.97;27.19;98093.75;5130754;27;20549;-75